Binningen Glider Field

EDSI · Baden-Württemberg, Duitsland

METAR historie EDSI · Binningen Glider Field

Hieronder zie je METAR's van de afgelopen dagen. Kies een jaar om door oudere METAR's te bladeren, vanaf het jaar 2007.

13 juni 2024

Tijd Code Weer Temp. Zicht Plafond Wind METAR/SPECI
06:20
V
9 °C 10 km+ 5.000 ft Var Var 2 kt METAR LSZH 130420Z VRB02KT 9999 BKN050 09/08 Q1019 NOSIG
06:50
V
10 °C 10 km+ 5.000 ft Var Var 2 kt METAR LSZH 130450Z VRB02KT 9999 BKN050 10/08 Q1019 NOSIG
06:20
V
9 °C 10 km+ 5.000 ft Var Var 2 kt METAR LSZH 130420Z VRB02KT 9999 BKN050 09/08 Q1019 NOSIG
05:50
V
10 °C 10 km+ 5.000 ft 050° 050° 2 kt METAR LSZH 130350Z 05002KT 9999 BKN050 10/08 Q1019 NOSIG
05:20
V
10 °C 10 km+ - 010° 010° 2 kt METAR LSZH 130320Z AUTO 01002KT 9999 FEW050 10/08 Q1019 NOSIG
04:50
V
10 °C 10 km+ - Var Var 2 kt METAR LSZH 130250Z AUTO VRB02KT 9999 FEW050 SCT065 10/08 Q1018 NOSIG
04:20
V
10 °C 10 km+ 6.500 ft Var Var 2 kt METAR LSZH 130220Z AUTO VRB02KT 9999 SCT049 SCT055 BKN065 10/08 Q1018 NOSIG
03:50
V
10 °C 10 km+ - 310° 310° 3 kt METAR LSZH 130150Z AUTO 31003KT 9999 FEW049 SCT055 10/08 Q1018 NOSIG
03:20
V
12 °C 10 km+ 7.500 ft 040° 040° 3 kt METAR LSZH 130120Z AUTO 04003KT 9999 -RA SCT050 BKN075 12/08 Q1018 NOSIG
02:50
V
12 °C 10 km+ - 330° 330° 4 kt METAR LSZH 130050Z AUTO 33004KT 290V010 9999 SCT050 SCT060 12/07 Q1018 NOSIG
02:20
V
11 °C 10 km+ 5.000 ft 340° 340° 4 kt METAR LSZH 130020Z AUTO 34004KT 9999 BKN050 11/07 Q1018 NOSIG
01:50
V
11 °C 10 km+ - 340° 340° 3 kt METAR LSZH 122350Z AUTO 34003KT 9999 SCT055 SCT065 11/07 Q1018 NOSIG
01:20
V
11 °C 10 km+ 6.500 ft Var Var 3 kt METAR LSZH 122320Z AUTO VRB03KT 9999 SCT055 BKN065 11/07 Q1018 NOSIG
00:50
V
10 °C 10 km+ - 320° 320° 5 kt METAR LSZH 122250Z AUTO 32005KT 9999 SCT055 SCT075 10/07 Q1018 NOSIG
00:20
V
12 °C 10 km+ - 350° 350° 6 kt METAR LSZH 122220Z AUTO 35006KT 9999 FEW075 12/06 Q1018 NOSIG

12 juni 2024

Tijd Code Weer Temp. Zicht Plafond Wind METAR/SPECI
23:50
V
11 °C 10 km+ - 330° 330° 7 kt METAR LSZH 122150Z AUTO 33007KT 9999 NCD 11/07 Q1018 NOSIG
23:20
V
13 °C 10 km+ 7.000 ft 340° 340° 6 kt METAR LSZH 122120Z 34006KT 290V020 9999 SCT060 BKN070 13/08 Q1018 NOSIG
22:50
V
14 °C 10 km+ - 340° 340° 5 kt METAR LSZH 122050Z 34005KT 9999 FEW060 SCT070 14/07 Q1018 NOSIG
22:20
V
14 °C 10 km+ 6.500 ft 350° 350° 5 kt METAR LSZH 122020Z 35005KT 9999 BKN065 14/06 Q1018 NOSIG
21:50
V
14 °C 10 km+ - 340° 340° 6 kt METAR LSZH 121950Z 34006KT 9999 VCSH SCT065 SCT075 14/07 Q1017 TEMPO SHRA
21:20
V
15 °C 10 km+ - 340° 340° 7 kt METAR LSZH 121920Z 34007KT 9999 FEW060 15/05 Q1017 TEMPO SHRA
20:50
V
16 °C 10 km+ - 360° 360° 6 kt METAR LSZH 121850Z 36006KT 9999 FEW060 SCT070 16/05 Q1017 NOSIG
20:20
V
17 °C 10 km+ - 360° 360° 7 kt METAR LSZH 121820Z 36007KT 330V050 9999 SCT065 SCT075 17/05 Q1016 NOSIG
19:50
V
17 °C 10 km+ 7.500 ft 030° 030° 6 kt METAR LSZH 121750Z 03006KT 9999 FEW060 BKN075 17/05 Q1016 NOSIG
19:20
V
17 °C 10 km+ - 030° 030° 5 kt METAR LSZH 121720Z 03005KT 9999 FEW065 SCT075 17/06 Q1016 NOSIG
18:50
V
18 °C 10 km+ - 030° 030° 3 kt METAR LSZH 121650Z 03003KT 010V080 9999 FEW065 SCT075 18/06 Q1016 NOSIG
18:20
V
18 °C 10 km+ - 050° 050° 6 kt METAR LSZH 121620Z 05006KT 360V090 9999 FEW065 18/04 Q1016 NOSIG
17:50
V
19 °C 10 km+ - 070° 070° 4 kt METAR LSZH 121550Z 07004KT 010V110 9999 FEW065 19/05 Q1016 NOSIG
17:20
V
19 °C 10 km+ - 050° 050° 4 kt METAR LSZH 121520Z 05004KT 350V160 9999 FEW065 19/05 Q1016 NOSIG
16:50
V
19 °C 10 km+ - 070° 070° 4 kt METAR LSZH 121450Z 07004KT 010V110 9999 FEW060 19/05 Q1016 NOSIG
16:20
V
19 °C 10 km+ - Var Var 4 kt METAR LSZH 121420Z VRB04KT 9999 FEW055 19/05 Q1016 NOSIG
15:50
V
19 °C 10 km+ - 360° 360° 6 kt METAR LSZH 121350Z 36006KT 300V040 9999 FEW055 19/07 Q1017 NOSIG
15:20
V
19 °C 10 km+ - 050° 050° 5 kt METAR LSZH 121320Z 05005KT 010V110 9999 FEW050 19/06 Q1017 NOSIG
14:50
V
18 °C 10 km+ - 070° 070° 5 kt METAR LSZH 121250Z 07005KT 040V110 9999 FEW050 18/07 Q1017 NOSIG
14:20
V
17 °C 10 km+ - 020° 020° 4 kt METAR LSZH 121220Z 02004KT 310V080 9999 FEW050 17/05 Q1017 NOSIG
13:50
V
18 °C 10 km+ - Var Var 3 kt METAR LSZH 121150Z VRB03KT 9999 SCT050 18/06 Q1017 NOSIG
13:20
V
17 °C 10 km+ - 030° 030° 7 kt METAR LSZH 121120Z 03007KT 9999 FEW047 17/06 Q1018 NOSIG
12:50
V
17 °C 10 km+ - 310° 310° 4 kt METAR LSZH 121050Z 31004KT 230V010 9999 FEW045 17/07 Q1018 NOSIG
12:20
V
16 °C 10 km+ - 010° 010° 6 kt METAR LSZH 121020Z 01006KT 330V040 9999 FEW040 16/06 Q1018 NOSIG
11:50
V
16 °C 10 km+ - Var Var 2 kt METAR LSZH 120950Z VRB02KT 9999 FEW035 16/07 Q1018 NOSIG
11:20
V
15 °C 10 km+ - 020° 020° 4 kt METAR LSZH 120920Z 02004KT 330V080 9999 FEW030 15/07 Q1018 NOSIG
10:50
V
15 °C 10 km+ - Var Var 3 kt METAR LSZH 120850Z VRB03KT 9999 FEW025 15/09 Q1018 NOSIG
10:20
V
14 °C 10 km+ - 310° 310° 3 kt METAR LSZH 120820Z 31003KT 250V350 9999 FEW022 14/08 Q1018 NOSIG
09:50
V
13 °C 10 km+ - Var Var 3 kt METAR LSZH 120750Z VRB03KT 9999 FEW018 13/09 Q1019 NOSIG
09:20
V
12 °C 10 km+ - Var Var 2 kt METAR LSZH 120720Z VRB02KT 9999 FEW008 12/09 Q1019 NOSIG
08:50
V
11 °C 10 km+ - Var Var 3 kt METAR LSZH 120650Z VRB03KT 9999 FEW006 11/09 Q1019 NOSIG
08:20
V
11 °C 10 km+ - Var Var 2 kt METAR LSZH 120620Z VRB02KT 9999 FEW002 11/09 Q1018 NOSIG
07:50
V
10 °C 8 km - Var Var 2 kt METAR LSZH 120550Z VRB02KT 8000 0600N R14/P2000N R16/0700U R28/P2000N R34/P2000N BCFG VCFG FEW002 10/09 Q1018 NOSIG
07:20
V
9 °C 10 km+ - 300° 300° 3 kt METAR LSZH 120520Z 30003KT 9999 0400N R14/P2000N R16/P2000N R28/P2000N R34/P2000N BCFG NSC 09/09 Q1018 NOSIG
06:50
V
9 °C 10 km+ - Var Var 2 kt METAR LSZH 120450Z VRB02KT 9999 MIFG NSC 09/08 Q1018 NOSIG
06:20
V
8 °C 10 km+ - 350° 350° 3 kt METAR LSZH 120420Z 35003KT 9999 MIFG NSC 08/07 Q1018 NOSIG
05:50
V
8 °C 10 km+ - Var Var 1 kt METAR LSZH 120350Z VRB01KT 9999 MIFG NSC 08/07 Q1018 NOSIG
05:20
V
8 °C 10 km+ - Var Var 1 kt METAR LSZH 120320Z AUTO VRB01KT 9999 0200N R14/P2000N R16/P2000N R28/P2000N R34/P2000N BCFG NCD 08/08 Q1018 BECMG NSW
04:50
V
8 °C 10 km+ - Var Var 1 kt METAR LSZH 120250Z AUTO VRB01KT 9999 0300N R14/P2000N R16/P2000N R28/P2000N R34/P2000N BCFG FEW000 08/08 Q1018 NOSIG
04:20
V
8 °C 10 km+ - 160° 160° 2 kt METAR LSZH 120220Z AUTO 16002KT 9999 2000N FEW001 08/08 Q1018 NOSIG
03:50
V
9 °C 10 km+ 5.000 ft Var Var 1 kt METAR LSZH 120150Z AUTO VRB01KT 9999 FEW002 BKN050 09/08 Q1018 NOSIG
03:20
V
9 °C 10 km+ - Var Var 1 kt METAR LSZH 120120Z AUTO VRB01KT 9999 SCT050 09/08 Q1018 NOSIG
02:50
V
9 °C 10 km+ - 010° 010° 2 kt METAR LSZH 120050Z AUTO 01002KT 9999 SCT050 SCT065 09/09 Q1018 NOSIG
02:20
V
10 °C 10 km+ - 360° 360° 0 kt METAR LSZH 120020Z AUTO 00000KT 9999 FEW050 10/09 Q1019 NOSIG
01:50
V
10 °C 10 km+ - Var Var 2 kt METAR LSZH 112350Z AUTO VRB02KT 9999 SCT050 SCT060 10/09 Q1019 NOSIG
01:20
V
11 °C 10 km+ 4.900 ft Var Var 2 kt METAR LSZH 112320Z AUTO VRB02KT 9999 BKN049 BKN055 11/09 Q1019 NOSIG
00:50
V
11 °C 10 km+ 4.900 ft Var Var 1 kt METAR LSZH 112250Z AUTO VRB01KT 9999 BKN049 11/09 Q1019 NOSIG
00:20
V
11 °C 10 km+ 7.500 ft Var Var 2 kt METAR LSZH 112220Z AUTO VRB02KT 9999 -RA SCT049 SCT065 OVC075 11/09 Q1019 NOSIG

11 juni 2024

Tijd Code Weer Temp. Zicht Plafond Wind METAR/SPECI
23:50
V
11 °C 10 km+ 7.000 ft Var Var 3 kt METAR LSZH 112150Z AUTO VRB03KT 9999 -RA FEW049 BKN070 11/09 Q1019 NOSIG
23:20
V
11 °C 10 km+ 7.500 ft Var Var 2 kt METAR LSZH 112120Z VRB02KT 9999 -SHRA SCT050 BKN075 11/09 Q1019 NOSIG
22:50
V
11 °C 10 km+ 5.300 ft 300° 300° 3 kt METAR LSZH 112050Z 30003KT 260V340 9999 -SHRA FEW040 BKN053 11/10 Q1019 NOSIG
22:20
V
11 °C 10 km+ 6.800 ft 010° 010° 2 kt METAR LSZH 112020Z 01002KT 9999 -SHRA FEW042 BKN068 11/10 Q1018 NOSIG
21:50
V
11 °C 10 km+ 6.500 ft 210° 210° 3 kt METAR LSZH 111950Z 21003KT 9999 -SHRA FEW036 BKN065 11/09 Q1018 NOSIG
21:20
V
11 °C 10 km+ 5.800 ft Var Var 2 kt METAR LSZH 111920Z VRB02KT 9999 -SHRA FEW026 BKN058 11/10 Q1017 NOSIG
20:50
V
12 °C 10 km+ 5.500 ft 170° 170° 4 kt METAR LSZH 111850Z 17004KT 130V260 9999 -SHRA FEW024 BKN055 12/10 Q1017 NOSIG
20:20
V
12 °C 10 km+ 6.300 ft 180° 180° 5 kt METAR LSZH 111820Z 18005KT 9999 -SHRA FEW022 BKN063 12/10 Q1017 NOSIG
19:50
V
13 °C 10 km+ 5.500 ft Var Var 1 kt METAR LSZH 111750Z VRB01KT 9999 -SHRA FEW020 BKN055 13/09 Q1017 NOSIG
19:20
V
13 °C 10 km+ 6.500 ft 130° 130° 3 kt METAR LSZH 111720Z 13003KT 9999 -RA FEW020 BKN065 13/09 Q1017 NOSIG
18:50
V
13 °C 10 km+ - 130° 130° 3 kt METAR LSZH 111650Z 13003KT 9999 FEW020 13/08 Q1016 NOSIG
18:20
V
13 °C 10 km+ - Var Var 2 kt METAR LSZH 111620Z VRB02KT 9999 FEW020 13/08 Q1016 NOSIG
17:50
V
13 °C 10 km+ - 160° 160° 4 kt METAR LSZH 111550Z 16004KT 9999 FEW024 SCT060 13/08 Q1016 NOSIG
17:20
V
13 °C 10 km+ 6.000 ft 160° 160° 5 kt METAR LSZH 111520Z 16005KT 130V200 9999 FEW024 BKN060 13/08 Q1016 NOSIG
16:50
V
14 °C 10 km+ 6.000 ft 140° 140° 4 kt METAR LSZH 111450Z 14004KT 090V160 9999 FEW024 BKN060 14/08 Q1016 NOSIG
16:20
V
13 °C 10 km+ 6.000 ft 110° 110° 3 kt METAR LSZH 111420Z 11003KT 9999 FEW024 BKN060 13/07 Q1016 NOSIG
15:50
V
13 °C 10 km+ 6.000 ft Var Var 2 kt METAR LSZH 111350Z VRB02KT 9999 FEW024 BKN060 13/08 Q1016 NOSIG
15:20
V
13 °C 10 km+ 6.000 ft Var Var 3 kt METAR LSZH 111320Z VRB03KT 9999 FEW024 BKN060 13/08 Q1016 NOSIG
14:50
V
13 °C 10 km+ 6.500 ft Var Var 1 kt METAR LSZH 111250Z VRB01KT 9999 FEW024 SCT050 BKN065 13/07 Q1016 NOSIG
14:20
V
13 °C 10 km+ 7.500 ft 120° 120° 3 kt METAR LSZH 111220Z 12003KT 080V140 9999 FEW024 SCT055 BKN075 13/08 Q1016 NOSIG
13:50
V
13 °C 10 km+ 5.500 ft Var Var 2 kt METAR LSZH 111150Z VRB02KT 9999 -RA FEW024 BKN055 BKN075 13/07 Q1016 NOSIG
13:20
V
13 °C 10 km+ 5.500 ft Var Var 1 kt METAR LSZH 111120Z VRB01KT 9999 -RA FEW024 BKN055 13/07 Q1016 NOSIG
12:50
V
13 °C 10 km+ 5.500 ft Var Var 2 kt METAR LSZH 111050Z VRB02KT 9999 -RA FEW024 BKN055 13/07 Q1016 NOSIG
12:20
V
12 °C 10 km+ 5.500 ft Var Var 3 kt METAR LSZH 111020Z VRB03KT 9999 FEW024 BKN055 12/07 Q1016 NOSIG
11:50
V
13 °C 10 km+ 5.500 ft 090° 090° 4 kt METAR LSZH 110950Z 09004KT 010V160 9999 FEW024 BKN055 13/07 Q1016 NOSIG
11:20
V
12 °C 10 km+ 5.000 ft 080° 080° 4 kt METAR LSZH 110920Z 08004KT 020V120 9999 FEW022 SCT026 BKN050 12/07 Q1016 NOSIG
10:50
M
11 °C 10 km+ 2.500 ft 050° 050° 4 kt METAR LSZH 110850Z 05004KT 020V100 9999 FEW020 BKN025 BKN050 11/06 Q1016 NOSIG
10:20
M
11 °C 10 km+ 2.500 ft 020° 020° 5 kt METAR LSZH 110820Z 02005KT 350V060 9999 VCSH FEW020 BKN025 BKN050 11/06 Q1016 NOSIG
09:50
M
11 °C 10 km+ 2.300 ft 360° 360° 3 kt METAR LSZH 110750Z 36003KT 330V050 9999 FEW020 BKN023 BKN055 11/06 Q1016 NOSIG
09:20
M
10 °C 10 km+ 2.300 ft 010° 010° 4 kt METAR LSZH 110720Z 01004KT 340V040 9999 VCSH FEW017 BKN023 10/06 Q1016 NOSIG
08:50
M
10 °C 10 km+ 2.200 ft 030° 030° 5 kt METAR LSZH 110650Z 03005KT 9999 FEW011 BKN022 10/07 Q1016 NOSIG
08:20
M
10 °C 10 km+ 2.200 ft 040° 040° 5 kt METAR LSZH 110620Z 04005KT 010V070 9999 -SHRA FEW010 SCT016 BKN022 10/08 Q1015 NOSIG
07:50
M
11 °C 10 km+ 3.000 ft Var Var 1 kt METAR LSZH 110550Z VRB01KT 9999 FEW009 SCT014 BKN030 11/08 Q1015 NOSIG
07:20
V
11 °C 10 km+ 3.300 ft 120° 120° 3 kt METAR LSZH 110520Z 12003KT 9999 -SHRA FEW007 SCT025 BKN033 11/09 Q1015 NOSIG
06:50
V
11 °C 10 km+ 3.500 ft 110° 110° 3 kt METAR LSZH 110450Z 11003KT 9999 -SHRA FEW010 SCT030 BKN035 11/09 Q1014 NOSIG
06:20
V
11 °C 10 km+ 3.500 ft Var Var 2 kt METAR LSZH 110420Z VRB02KT 9999 VCSH FEW013 BKN035 11/08 Q1014 NOSIG
05:50
V
11 °C 10 km+ 3.200 ft 110° 110° 2 kt METAR LSZH 110350Z 11002KT 9999 FEW013 BKN032 11/09 Q1014 NOSIG
05:20
V
11 °C 10 km+ 3.200 ft 140° 140° 3 kt METAR LSZH 110320Z AUTO 14003KT 9999 -RA FEW027 BKN032 11/09 Q1014 NOSIG
04:50
V
11 °C 10 km+ 3.200 ft Var Var 2 kt METAR LSZH 110250Z AUTO VRB02KT 9999 RA SCT027 BKN032 11/09 Q1014 NOSIG
04:20
M
11 °C 10 km+ 2.900 ft Var Var 2 kt METAR LSZH 110220Z AUTO VRB02KT 9999 -RA SCT026 BKN029 BKN034 11/09 Q1013 NOSIG
03:50
V
11 °C 10 km+ 3.500 ft Var Var 2 kt METAR LSZH 110150Z AUTO VRB02KT 9999 RA FEW025 BKN035 11/10 Q1013 NOSIG
03:20
V
11 °C 10 km+ 5.000 ft 210° 210° 2 kt METAR LSZH 110120Z AUTO 21002KT 9999 FEW033 OVC050 11/10 Q1013 RERA NOSIG
02:50
V
11 °C 10 km+ 5.000 ft 340° 340° 3 kt METAR LSZH 110050Z AUTO 34003KT 9999 RA FEW032 BKN050 11/09 Q1013 NOSIG
02:20
V
12 °C 10 km+ 3.200 ft 340° 340° 9 kt METAR LSZH 110020Z AUTO 34009KT 9999 -RA FEW024 SCT027 BKN032 12/08 Q1014 NOSIG
01:50
V
13 °C 10 km+ 3.700 ft 350° 350° 9 kt METAR LSZH 102350Z AUTO 35009KT 9999 -RA FEW024 SCT032 BKN037 13/08 Q1013 NOSIG
01:20
M
14 °C 10 km+ 2.500 ft 010° 010° 10 kt METAR LSZH 102320Z AUTO 01010KT 9999 BKN025 14/08 Q1013 NOSIG
00:50
V
15 °C 10 km+ 6.000 ft 290° 290° 8 kt METAR LSZH 102250Z AUTO 29008KT 9999 SCT050 BKN060 15/09 Q1013 NOSIG
00:20
V
16 °C 10 km+ 6.000 ft 290° 290° 7 kt METAR LSZH 102220Z AUTO 29007KT 9999 SCT050 BKN060 16/09 Q1012 NOSIG

10 juni 2024

Tijd Code Weer Temp. Zicht Plafond Wind METAR/SPECI
23:50
V
17 °C 10 km+ - 280° 280° 7 kt METAR LSZH 102150Z AUTO 28007KT 240V310 CAVOK 17/09 Q1012 NOSIG
23:20
V
16 °C 10 km+ - 290° 290° 5 kt METAR LSZH 102120Z 29005KT 9999 FEW075 16/09 Q1012 NOSIG
22:50
V
17 °C 10 km+ - 260° 260° 3 kt METAR LSZH 102050Z 26003KT 9999 FEW075 17/08 Q1011 NOSIG
22:20
V
17 °C 10 km+ 7.500 ft 280° 280° 4 kt METAR LSZH 102020Z 28004KT 220V320 9999 FEW065 BKN075 17/08 Q1011 NOSIG
21:50
V
17 °C 10 km+ 6.500 ft 290° 290° 4 kt METAR LSZH 101950Z 29004KT 9999 BKN065 17/09 Q1011 NOSIG
21:20
V
18 °C 10 km+ 6.500 ft 290° 290° 6 kt METAR LSZH 101920Z 29006KT 9999 BKN065 18/08 Q1011 NOSIG
20:50
V
18 °C 10 km+ 5.500 ft 290° 290° 7 kt METAR LSZH 101850Z 29007KT 9999 BKN055 18/09 Q1010 NOSIG
20:20
V
18 °C 10 km+ 5.500 ft 300° 300° 8 kt METAR LSZH 101820Z 30008KT 260V330 9999 BKN055 18/08 Q1010 NOSIG
19:50
V
19 °C 10 km+ - 300° 300° 10 kt METAR LSZH 101750Z 30010KT 9999 SCT055 19/09 Q1010 NOSIG
19:20
V
20 °C 10 km+ - 300° 300° 11 kt METAR LSZH 101720Z 30011KT 9999 FEW055 20/08 Q1009 NOSIG
18:50
V
20 °C 10 km+ - 300° 300° 11 kt METAR LSZH 101650Z 30011KT 9999 SCT055 20/08 Q1009 NOSIG
18:20
V
21 °C 10 km+ - 300° 300° 10 kt METAR LSZH 101620Z 30010KT 9999 FEW055 21/08 Q1009 NOSIG
17:50
V
21 °C 10 km+ - 260° 260° 8 kt METAR LSZH 101550Z 26008KT 220V300 9999 FEW055 21/08 Q1009 NOSIG
17:20
V
21 °C 10 km+ - 240° 240° 5 kt METAR LSZH 101520Z 24005KT 9999 FEW055 21/08 Q1009 NOSIG
16:50
V
22 °C 10 km+ - 260° 260° 7 kt METAR LSZH 101450Z 26007KT 220V300 9999 FEW055 22/09 Q1009 NOSIG
16:20
V
21 °C 10 km+ - 250° 250° 9 kt METAR LSZH 101420Z 25009KT 220V280 9999 FEW050 21/09 Q1009 NOSIG
Wijziging doorgeven